Time;durP1;ratioP1;P1;durP2;ratioP2;P2;SDS_P1;SDS_P2;PMS_P1;PMS_P2;Temp;Humidity;BMP_temperature;BMP_pressure;BME280_temperature;BME280_humidity;BME280_pressure;Samples;Min_cycle;Max_cycle;Signal;HPM_P1;HPM_P2
2022/09/02 00:01:45;;;;;;;1.02;0.55;;;;;;;19.80;37.00;99670.34;4490001;31;33640;-80
2022/09/02 00:04:16;;;;;;;1.35;0.85;;;;;;;19.52;38.19;99667.38;4488588;31;33236;-80
2022/09/02 00:06:46;;;;;;;0.53;0.50;;;;;;;19.89;38.13;99668.19;4488488;31;33260;-78
2022/09/02 00:09:19;;;;;;;0.67;0.60;;;;;;;19.81;38.41;99663.28;4493531;31;33178;-79
2022/09/02 00:11:50;;;;;;;2.70;1.12;;;;;;;19.63;37.87;99662.44;4489465;31;32706;-80
2022/09/02 00:14:22;;;;;;;0.80;0.77;;;;;;;19.99;38.06;99658.87;4490099;31;33750;-78
2022/09/02 00:16:51;;;;;;;0.95;0.68;;;;;;;20.20;36.98;99654.25;4489921;31;34119;-79
2022/09/02 00:19:22;;;;;;;0.60;0.60;;;;;;;19.70;37.12;99650.69;4490348;31;33557;-79
2022/09/02 00:21:52;;;;;;;0.40;0.40;;;;;;;20.26;36.36;99651.28;4497113;31;33708;-80
2022/09/02 00:24:22;;;;;;;5.70;0.93;;;;;;;19.94;37.51;99659.09;4492343;31;32578;-78
2022/09/02 00:26:52;;;;;;;2.65;0.55;;;;;;;19.92;36.97;99650.44;4491254;31;34580;-78
2022/09/02 00:29:25;;;;;;;1.27;0.62;;;;;;;20.07;36.72;99656.66;4492212;31;32920;-78
2022/09/02 00:31:54;;;;;;;0.45;0.45;;;;;;;19.93;37.00;99646.84;4496938;31;34490;-80
2022/09/02 00:34:23;;;;;;;0.73;0.47;;;;;;;20.19;36.12;99648.09;4491612;31;34481;-78
2022/09/02 00:36:52;;;;;;;0.52;0.50;;;;;;;20.03;36.20;99645.47;4491274;31;33565;-79
2022/09/02 00:39:21;;;;;;;0.52;0.50;;;;;;;19.81;37.12;99642.22;4490179;31;33065;-79
2022/09/02 00:41:52;;;;;;;1.30;0.70;;;;;;;19.85;37.92;99637.69;4491003;31;33558;-81
2022/09/02 00:44:22;;;;;;;0.60;0.40;;;;;;;19.86;36.60;99640.25;4497434;31;34441;-78
2022/09/02 00:46:51;;;;;;;1.80;0.60;;;;;;;20.07;36.45;99627.69;4491470;31;35137;-81
2022/09/02 00:49:23;;;;;;;1.83;0.62;;;;;;;19.79;35.89;99644.97;4490904;31;33386;-80
2022/09/02 00:51:56;;;;;;;1.10;0.55;;;;;;;19.67;37.42;99639.44;4492847;31;33895;-79
2022/09/02 00:54:26;;;;;;;1.80;0.50;;;;;;;19.69;36.98;99645.50;4497061;31;33736;-78
2022/09/02 00:56:56;;;;;;;;;;;;;;;19.71;36.29;99636.59;4491407;31;33411;-79
2022/09/02 00:59:30;;;;;;;1.48;0.73;;;;;;;19.72;36.77;99626.94;4490546;31;33079;-78
2022/09/02 01:02:00;;;;;;;0.43;0.43;;;;;;;19.64;37.70;99639.59;4491190;31;33648;-78
2022/09/02 01:04:29;;;;;;;0.55;0.50;;;;;;;19.78;36.30;99632.72;4490556;31;34579;-79
2022/09/02 01:06:57;;;;;;;1.20;0.60;;;;;;;20.09;35.56;99628.47;4494202;31;34505;-78
2022/09/02 01:09:26;;;;;;;0.50;0.50;;;;;;;19.87;35.19;99626.13;4491044;31;33960;-81
2022/09/02 01:11:57;;;;;;;0.40;0.40;;;;;;;20.18;34.76;99625.34;4491232;31;34240;-78
2022/09/02 01:14:27;;;;;;;0.47;0.47;;;;;;;19.83;35.27;99624.59;4490578;31;33527;-78
2022/09/02 01:16:59;;;;;;;1.02;0.50;;;;;;;20.13;34.55;99622.13;4496769;31;34973;-79
2022/09/02 01:19:32;;;;;;;1.05;0.77;;;;;;;20.06;35.51;99628.66;4489953;31;31849;-80
2022/09/02 01:22:06;;;;;;;0.65;0.47;;;;;;;19.47;35.73;99628.16;4490353;31;33561;-80
2022/09/02 01:24:35;;;;;;;1.12;0.50;;;;;;;19.59;36.41;99616.16;4491330;31;33980;-80
2022/09/02 01:27:04;;;;;;;1.37;0.60;;;;;;;19.60;35.71;99623.12;4491208;31;33480;-78
2022/09/02 01:29:33;;;;;;;0.43;0.43;;;;;;;19.70;36.01;99627.00;4496714;31;32126;-81
2022/09/02 01:32:03;;;;;;;0.65;0.60;;;;;;;19.32;36.92;99635.03;4490543;31;34369;-78
2022/09/02 01:34:32;;;;;;;0.60;0.60;;;;;;;19.70;35.96;99629.63;4490837;31;33816;-81
2022/09/02 01:37:01;;;;;;;1.15;0.68;;;;;;;19.93;35.97;99628.41;4490766;31;34504;-79
2022/09/02 01:39:31;;;;;;;1.27;0.45;;;;;;;19.59;35.99;99626.66;4495000;31;33070;-79
2022/09/02 01:42:01;;;;;;;1.05;0.60;;;;;;;19.84;35.56;99626.28;4490827;31;34279;-78
2022/09/02 01:44:30;;;;;;;1.30;0.70;;;;;;;19.95;35.37;99623.09;4491181;31;33668;-80
2022/09/02 01:46:59;;;;;;;0.43;0.40;;;;;;;20.07;36.32;99626.84;4490849;31;32666;-78
2022/09/02 01:49:28;;;;;;;1.75;0.75;;;;;;;20.14;34.44;99621.16;4489400;31;33719;-77
2022/09/02 01:52:05;;;;;;;1.05;0.75;;;;;;;19.55;36.37;99631.25;4495943;31;33931;-78
2022/09/02 01:54:35;;;;;;;0.70;0.40;;;;;;;19.40;36.01;99621.50;4490533;31;33696;-81
2022/09/02 01:57:05;;;;;;;0.40;0.40;;;;;;;19.65;36.11;99631.62;4490679;31;34388;-78
2022/09/02 01:59:33;;;;;;;0.88;0.50;;;;;;;19.78;35.57;99621.34;4490858;31;33517;-79
2022/09/02 02:02:02;;;;;;;1.05;0.50;;;;;;;19.56;35.93;99622.41;4494318;31;33562;-80
2022/09/02 02:04:33;;;;;;;2.20;0.85;;;;;;;19.44;36.77;99615.16;4490119;31;34754;-78
2022/09/02 02:07:04;;;;;;;;;;;;;;;19.72;36.36;99616.41;4490213;31;33362;-78
2022/09/02 02:09:33;;;;;;;0.37;0.37;;;;;;;19.89;35.57;99612.91;4491152;31;33797;-78
2022/09/02 02:12:05;;;;;;;1.08;0.60;;;;;;;19.83;35.67;99620.16;4490716;31;33888;-78
2022/09/02 02:14:34;;;;;;;0.50;0.50;;;;;;;19.72;35.94;99614.63;4496479;31;34616;-78
2022/09/02 02:17:04;;;;;;;1.20;0.60;;;;;;;19.71;35.11;99612.91;4490875;31;33491;-77
2022/09/02 02:19:34;;;;;;;1.00;0.57;;;;;;;19.53;36.57;99614.69;4490658;31;32858;-79
2022/09/02 02:22:04;;;;;;;0.60;0.50;;;;;;;19.50;36.43;99617.47;4490095;31;33752;-80
2022/09/02 02:24:33;;;;;;;0.70;0.50;;;;;;;19.75;36.48;99616.25;4495835;31;36010;-80
2022/09/02 02:27:04;;;;;;;0.65;0.45;;;;;;;19.78;36.27;99613.44;4485124;31;33757;-79
2022/09/02 02:29:33;;;;;;;0.95;0.60;;;;;;;19.54;36.11;99616.38;4490724;31;33010;-79
2022/09/02 02:32:02;;;;;;;0.75;0.50;;;;;;;19.75;35.00;99617.09;4490323;31;32471;-78
2022/09/02 02:34:31;;;;;;;1.98;0.70;;;;;;;19.16;36.00;99608.66;4490520;31;34417;-80
2022/09/02 02:37:00;;;;;;;0.68;0.50;;;;;;;19.55;35.81;99612.84;4482484;31;32518;-81
2022/09/02 02:39:29;;;;;;;0.50;0.50;;;;;;;19.65;35.99;99610.56;4489675;31;34136;-79
2022/09/02 02:41:58;;;;;;;0.98;0.70;;;;;;;19.13;36.47;99608.78;4489795;31;33650;-80
2022/09/02 02:44:29;;;;;;;1.35;0.70;;;;;;;19.52;36.28;99604.22;4490667;31;34515;-79
2022/09/02 02:46:58;;;;;;;0.75;0.75;;;;;;;19.75;36.13;99610.97;4496018;31;34431;-77
2022/09/02 02:49:28;;;;;;;0.90;0.57;;;;;;;19.69;35.87;99611.28;4489085;31;32913;-78
2022/09/02 02:51:56;;;;;;;0.77;0.40;;;;;;;19.03;36.81;99604.94;4490218;31;34422;-79
2022/09/02 02:54:26;;;;;;;0.60;0.60;;;;;;;19.30;36.20;99605.31;4490823;31;34792;-79
2022/09/02 02:57:03;;;;;;;1.65;0.90;;;;;;;19.65;36.23;99604.47;4489024;31;33535;-80
2022/09/02 02:59:35;;;;;;;0.85;0.52;;;;;;;19.81;35.25;99610.66;4496017;31;33178;-80
2022/09/02 03:02:06;;;;;;;1.73;0.77;;;;;;;19.80;35.88;99608.94;4490386;31;34171;-78
2022/09/02 03:04:36;;;;;;;0.50;0.50;;;;;;;19.51;35.87;99615.69;4490542;31;33909;-79
2022/09/02 03:07:06;;;;;;;0.57;0.52;;;;;;;19.01;37.30;99604.16;4490535;31;33637;-80
2022/09/02 03:09:35;;;;;;;0.47;0.47;;;;;;;19.56;35.95;99605.78;4495850;31;32475;-80
2022/09/02 03:12:04;;;;;;;0.60;0.60;;;;;;;19.14;36.82;99605.25;4490345;31;33614;-77
2022/09/02 03:14:36;;;;;;;0.60;0.60;;;;;;;19.03;36.80;99597.03;4490019;31;34716;-78
2022/09/02 03:17:05;;;;;;;;;;;;;;;19.08;37.53;99600.28;4489426;31;34408;-77
2022/09/02 03:19:35;;;;;;;0.40;0.40;;;;;;;19.42;36.22;99601.22;4490492;31;33626;-81
2022/09/02 03:22:04;;;;;;;2.30;1.17;;;;;;;19.58;36.41;99596.87;4494573;31;33485;-78
2022/09/02 03:24:33;;;;;;;0.55;0.50;;;;;;;19.36;36.99;99596.28;4489226;31;33599;-79
2022/09/02 03:27:03;;;;;;;0.77;0.50;;;;;;;19.54;35.70;99600.59;4490428;31;33872;-79
2022/09/02 03:29:31;;;;;;;0.57;0.50;;;;;;;19.02;36.86;99597.97;4488702;31;32486;-80
2022/09/02 03:32:06;;;;;;;0.85;0.70;;;;;;;19.57;36.38;99592.56;4493928;31;33774;-80
2022/09/02 03:34:35;;;;;;;0.50;0.50;;;;;;;19.56;36.10;99596.09;4493057;31;33807;-78
2022/09/02 03:37:04;;;;;;;0.75;0.75;;;;;;;18.79;38.72;99599.09;4489983;31;34365;-78
2022/09/02 03:39:33;;;;;;;0.52;0.50;;;;;;;18.97;36.61;99597.34;4490109;31;33683;-80
2022/09/02 03:42:03;;;;;;;0.60;0.60;;;;;;;18.85;37.77;99598.81;4490430;31;33600;-79
2022/09/02 03:44:34;;;;;;;1.98;0.82;;;;;;;19.24;36.60;99599.53;4495838;31;34689;-80
2022/09/02 03:47:03;;;;;;;0.50;0.50;;;;;;;19.49;35.65;99599.13;4487447;31;34258;-80
2022/09/02 03:49:33;;;;;;;0.73;0.52;;;;;;;19.00;37.50;99598.97;4489738;31;33045;-79
2022/09/02 03:52:02;;;;;;;0.60;0.60;;;;;;;19.22;36.95;99593.50;4490206;31;33368;-78
2022/09/02 03:54:31;;;;;;;0.50;0.50;;;;;;;19.02;38.17;99599.75;4494136;31;34831;-78
2022/09/02 03:57:00;;;;;;;1.10;0.55;;;;;;;19.11;37.38;99599.28;4488752;31;32634;-79
2022/09/02 03:59:29;;;;;;;1.20;0.82;;;;;;;18.98;37.99;99599.06;4489366;31;33043;-77
2022/09/02 04:01:58;;;;;;;0.80;0.60;;;;;;;19.10;37.59;99598.44;4488291;31;33853;-77
2022/09/02 04:04:27;;;;;;;0.82;0.82;;;;;;;18.88;37.27;99596.03;4488753;31;33773;-78
2022/09/02 04:06:58;;;;;;;1.17;0.73;;;;;;;18.91;37.89;99598.50;4495547;31;34476;-77
2022/09/02 04:09:27;;;;;;;1.58;0.70;;;;;;;19.16;36.84;99592.00;4489743;31;33411;-78
2022/09/02 04:11:56;;;;;;;0.75;0.62;;;;;;;18.97;37.68;99598.22;4489524;31;33396;-77
2022/09/02 04:14:25;;;;;;;0.47;0.47;;;;;;;18.98;37.79;99599.91;4488943;31;33619;-79
2022/09/02 04:16:54;;;;;;;5.80;2.05;;;;;;;19.00;37.01;99606.88;4495136;31;33580;-78
2022/09/02 04:19:27;;;;;;;0.77;0.50;;;;;;;18.94;36.86;99598.38;4489165;31;33005;-79
2022/09/02 04:21:58;;;;;;;1.25;0.70;;;;;;;18.90;37.93;99609.09;4487734;31;33841;-78
2022/09/02 04:24:27;;;;;;;1.42;0.60;;;;;;;18.76;37.79;99592.22;4489591;31;32969;-79
2022/09/02 04:26:56;;;;;;;0.90;0.60;;;;;;;18.85;37.57;99603.22;4489388;31;33991;-78
2022/09/02 04:29:33;;;;;;;0.40;0.40;;;;;;;18.84;37.99;99601.50;4495115;31;33923;-80
2022/09/02 04:32:02;;;;;;;2.47;0.88;;;;;;;18.28;39.17;99609.34;4489389;31;34322;-78
2022/09/02 04:34:31;;;;;;;0.68;0.50;;;;;;;19.10;37.29;99610.75;4489418;31;33643;-78
2022/09/02 04:37:01;;;;;;;0.70;0.70;;;;;;;19.04;37.49;99605.78;4488983;31;34549;-80
2022/09/02 04:39:30;;;;;;;1.00;0.60;;;;;;;18.93;37.32;99606.31;4494083;31;32503;-78
2022/09/02 04:41:59;;;;;;;0.68;0.65;;;;;;;18.90;37.48;99607.31;4489332;31;34470;-81
2022/09/02 04:44:27;;;;;;;0.60;0.60;;;;;;;18.91;37.74;99608.16;4489533;31;32355;-79
2022/09/02 04:46:57;;;;;;;0.93;0.57;;;;;;;18.68;37.93;99609.25;4489382;31;33725;-79
2022/09/02 04:49:26;;;;;;;0.65;0.47;;;;;;;19.48;36.85;99618.50;4489978;31;32991;-79
2022/09/02 04:51:54;;;;;;;1.12;1.02;;;;;;;18.95;38.44;99618.47;4494544;31;33384;-79
2022/09/02 04:54:25;;;;;;;2.47;0.75;;;;;;;19.02;37.88;99618.16;4482503;31;33590;-80
2022/09/02 04:56:54;;;;;;;0.62;0.60;;;;;;;18.98;37.77;99623.56;4483780;31;33562;-78
2022/09/02 04:59:23;;;;;;;2.15;0.70;;;;;;;19.51;36.65;99618.31;4482991;31;33998;-78
2022/09/02 05:01:54;;;;;;;1.05;0.70;;;;;;;19.02;37.02;99616.38;4484917;31;33560;-80
2022/09/02 05:04:28;;;;;;;0.70;0.60;;;;;;;19.38;36.80;99618.13;4481825;31;33636;-80
2022/09/02 05:07:00;;;;;;;0.70;0.70;;;;;;;19.47;37.07;99620.25;4482196;31;33441;-79
2022/09/02 05:09:33;;;;;;;0.70;0.60;;;;;;;19.20;38.25;99617.25;4485443;31;34006;-78
2022/09/02 05:12:03;;;;;;;1.37;0.65;;;;;;;19.00;37.95;99620.00;4482475;31;33421;-78
2022/09/02 05:14:32;;;;;;;0.47;0.47;;;;;;;19.24;37.67;99626.69;4485800;31;33048;-78
2022/09/02 05:17:03;;;;;;;0.95;0.60;;;;;;;19.08;38.29;99626.59;4489001;31;34662;-80
2022/09/02 05:19:35;;;;;;;0.60;0.50;;;;;;;19.44;37.11;99627.47;4489144;31;34145;-79
2022/09/02 05:22:05;;;;;;;0.40;0.40;;;;;;;19.39;36.96;99617.16;4490211;31;34172;-78
2022/09/02 05:24:35;;;;;;;1.05;0.60;;;;;;;19.66;37.06;99620.16;4495317;31;33744;-80
2022/09/02 05:27:05;;;;;;;1.73;0.70;;;;;;;19.80;36.53;99625.59;4488739;31;31806;-80
2022/09/02 05:29:35;;;;;;;0.60;0.60;;;;;;;19.52;36.99;99622.66;4484568;31;32903;-81
2022/09/02 05:32:06;;;;;;;0.62;0.60;;;;;;;19.62;37.46;99623.91;4490982;31;33046;-80
2022/09/02 05:34:36;;;;;;;0.60;0.50;;;;;;;19.56;37.51;99632.09;4488797;31;33492;-80
2022/09/02 05:37:05;;;;;;;0.57;0.52;;;;;;;19.00;37.90;99623.50;4493279;31;34180;-79
2022/09/02 05:39:36;;;;;;;1.00;0.88;;;;;;;19.70;36.85;99623.53;4489644;31;34130;-79
2022/09/02 05:42:05;;;;;;;0.50;0.50;;;;;;;19.71;37.49;99625.22;4489399;31;33567;-78
2022/09/02 05:44:36;;;;;;;0.93;0.57;;;;;;;19.80;37.46;99616.84;4493583;31;34045;-80
2022/09/02 05:47:06;;;;;;;;;;;;;;;19.50;37.01;99616.59;4481658;31;31810;-79
2022/09/02 05:49:34;;;;;;;0.50;0.50;;;;;;;19.68;37.11;99618.34;4488776;31;33586;-79
2022/09/02 05:52:08;;;;;;;1.25;0.60;;;;;;;19.41;37.65;99620.56;4490728;31;33416;-78
2022/09/02 05:54:39;;;;;;;1.00;0.77;;;;;;;19.93;36.57;99615.25;4489732;31;34771;-80
2022/09/02 05:57:13;;;;;;;1.00;0.57;;;;;;;20.04;36.42;99612.06;4487554;31;33905;-80
2022/09/02 05:59:43;;;;;;;0.50;0.50;;;;;;;19.72;37.83;99619.03;4495916;31;34089;-79
2022/09/02 06:02:15;;;;;;;0.52;0.50;;;;;;;20.09;36.69;99622.38;4489092;31;33526;-80
2022/09/02 06:04:47;;;;;;;1.30;0.57;;;;;;;20.12;37.38;99616.91;4487841;31;33722;-81
2022/09/02 06:07:16;;;;;;;0.70;0.60;;;;;;;19.85;36.53;99624.50;4489637;31;34423;-80
2022/09/02 06:09:48;;;;;;;0.40;0.40;;;;;;;20.13;35.90;99621.28;4491687;31;33893;-78
2022/09/02 06:12:19;;;;;;;0.40;0.40;;;;;;;19.98;37.29;99625.53;4495810;31;33430;-78
2022/09/02 06:14:49;;;;;;;1.27;0.62;;;;;;;20.36;36.54;99623.50;4485192;31;34714;-80
2022/09/02 06:17:18;;;;;;;0.88;0.60;;;;;;;20.47;35.90;99625.56;4486067;31;33747;-78
2022/09/02 06:19:48;;;;;;;0.98;0.60;;;;;;;20.08;36.37;99628.53;4488637;31;32973;-79
2022/09/02 06:22:21;;;;;;;1.27;0.60;;;;;;;20.45;35.98;99623.00;4496714;31;33570;-81
2022/09/02 06:24:52;;;;;;;1.10;0.70;;;;;;;20.09;36.44;99625.00;4491108;31;34598;-80
2022/09/02 06:27:21;;;;;;;0.93;0.60;;;;;;;19.97;36.98;99632.59;4490757;31;33346;-78
2022/09/02 06:29:51;;;;;;;0.75;0.70;;;;;;;20.58;35.39;99628.47;4489410;31;34151;-79
2022/09/02 06:32:20;;;;;;;0.52;0.50;;;;;;;20.19;36.78;99631.47;4487412;31;33366;-79
2022/09/02 06:34:49;;;;;;;1.33;0.70;;;;;;;20.28;36.83;99630.13;4494629;31;33778;-79
2022/09/02 06:37:18;;;;;;;0.90;0.57;;;;;;;20.57;36.09;99639.94;4490257;31;33370;-79
2022/09/02 06:39:47;;;;;;;1.30;0.80;;;;;;;20.57;36.57;99637.31;4490354;31;33202;-81
2022/09/02 06:42:18;;;;;;;1.42;0.80;;;;;;;20.37;36.23;99632.25;4492004;31;33322;-80
2022/09/02 06:44:47;;;;;;;1.12;1.02;;;;;;;19.96;37.03;99641.44;4495900;31;32989;-80
2022/09/02 06:47:15;;;;;;;0.80;0.60;;;;;;;20.27;36.13;99641.59;4489295;31;34266;-78
2022/09/02 06:49:46;;;;;;;0.98;0.70;;;;;;;20.19;36.46;99639.38;4489135;31;34498;-78
2022/09/02 06:52:15;;;;;;;1.08;0.70;;;;;;;20.75;35.86;99637.22;4486474;31;33802;-79
2022/09/02 06:54:45;;;;;;;1.33;0.70;;;;;;;20.82;35.25;99636.78;4488632;31;34597;-79
2022/09/02 06:57:14;;;;;;;1.02;0.65;;;;;;;20.58;37.03;99640.78;4488644;31;34094;-78
2022/09/02 06:59:45;;;;;;;0.45;0.45;;;;;;;20.41;36.55;99637.25;4483609;31;33417;-78
2022/09/02 07:02:14;;;;;;;0.93;0.68;;;;;;;20.37;36.47;99643.66;4482723;31;34025;-79
2022/09/02 07:07:35;;;;;;;0.75;0.50;;;;;;;20.63;37.37;99634.34;4487453;31;34547;-82
2022/09/02 07:10:07;;;;;;;2.40;0.50;;;;;;;20.45;37.03;99645.88;4485111;31;34139;-78
2022/09/02 07:12:37;;;;;;;1.75;0.70;;;;;;;21.06;35.96;99636.34;4482324;31;33592;-79
2022/09/02 07:15:09;;;;;;;0.50;0.50;;;;;;;21.12;35.85;99643.03;4478452;31;33751;-80
2022/09/02 07:17:38;;;;;;;0.73;0.68;;;;;;;20.81;36.48;99640.38;4480983;31;34157;-80
2022/09/02 07:20:08;;;;;;;0.70;0.52;;;;;;;21.00;36.28;99636.69;4490580;31;33793;-80
2022/09/02 07:22:38;;;;;;;2.60;0.62;;;;;;;21.41;36.41;99633.47;4484722;31;32362;-81
2022/09/02 07:25:09;;;;;;;1.30;0.65;;;;;;;21.26;35.01;99627.25;4486681;31;34377;-79
2022/09/02 07:27:38;;;;;;;2.00;0.80;;;;;;;21.27;36.25;99635.09;4486779;31;33789;-80
2022/09/02 07:30:10;;;;;;;1.65;0.88;;;;;;;20.97;36.65;99639.50;4489411;31;33173;-80
2022/09/02 07:32:39;;;;;;;0.95;0.60;;;;;;;21.21;36.38;99640.72;4493089;31;33608;-79
2022/09/02 07:35:09;;;;;;;0.50;0.50;;;;;;;21.14;36.38;99649.06;4487474;31;33733;-79
2022/09/02 07:37:38;;;;;;;2.03;0.90;;;;;;;21.40;36.44;99640.53;4483193;31;34373;-78
2022/09/02 07:40:09;;;;;;;2.45;0.70;;;;;;;21.34;36.99;99646.16;4483328;31;34228;-81
2022/09/02 07:42:38;;;;;;;0.62;0.52;;;;;;;20.89;36.39;99648.69;4486973;31;32991;-81
2022/09/02 07:45:09;;;;;;;1.00;0.73;;;;;;;21.04;36.13;99640.84;4482023;31;33590;-79
2022/09/02 07:47:41;;;;;;;1.10;0.60;;;;;;;21.09;36.77;99649.34;4480552;31;34263;-78
2022/09/02 07:50:12;;;;;;;1.02;0.73;;;;;;;21.01;37.64;99641.03;4479656;31;33273;-78
2022/09/02 07:52:49;;;;;;;1.50;0.75;;;;;;;20.56;38.05;99645.28;4481286;31;31723;-78
2022/09/02 07:55:18;;;;;;;0.80;0.80;;;;;;;20.82;38.10;99642.06;4487747;31;33134;-78
2022/09/02 07:57:47;;;;;;;0.70;0.60;;;;;;;21.18;36.96;99643.53;4479486;31;33624;-79
2022/09/02 08:00:19;;;;;;;0.60;0.60;;;;;;;21.26;36.65;99649.25;4480857;31;33140;-78
2022/09/02 08:02:49;;;;;;;1.52;0.60;;;;;;;20.85;37.77;99636.63;4478865;31;34325;-78
2022/09/02 08:05:18;;;;;;;4.15;2.15;;;;;;;21.16;37.33;99642.78;4486321;31;34566;-78
2022/09/02 08:07:47;;;;;;;1.58;0.70;;;;;;;21.29;38.26;99635.84;4481134;31;31928;-78
2022/09/02 08:10:16;;;;;;;1.27;0.65;;;;;;;21.42;37.37;99641.28;4481590;31;32926;-78
2022/09/02 08:12:45;;;;;;;2.47;0.70;;;;;;;21.43;37.15;99645.66;4482052;31;33604;-79
2022/09/02 08:15:15;;;;;;;1.27;0.70;;;;;;;21.41;36.57;99646.69;4484211;31;32791;-81
2022/09/02 08:17:47;;;;;;;1.33;0.65;;;;;;;21.40;36.39;99650.25;4484635;31;33563;-81
2022/09/02 08:20:17;;;;;;;1.60;1.35;;;;;;;20.91;37.74;99650.41;4483853;31;32153;-78
2022/09/02 08:22:46;;;;;;;0.85;0.57;;;;;;;21.27;37.77;99637.72;4477296;31;33096;-79
2022/09/02 08:25:28;;;;;;;0.85;0.60;;;;;;;21.50;37.17;99644.34;4482825;31;34219;-81
2022/09/02 08:27:57;;;;;;;2.15;1.00;;;;;;;21.24;37.11;99648.47;4488749;31;33551;-80
2022/09/02 08:30:26;;;;;;;1.55;0.70;;;;;;;21.49;36.74;99641.78;4484780;31;33176;-81
2022/09/02 08:32:56;;;;;;;1.02;0.65;;;;;;;21.47;37.44;99635.75;4479510;31;32378;-81
2022/09/02 08:35:25;;;;;;;0.65;0.52;;;;;;;21.50;37.60;99632.91;4484341;31;34443;-79
2022/09/02 08:37:54;;;;;;;0.82;0.57;;;;;;;21.88;37.13;99642.97;4481193;31;33018;-79
2022/09/02 08:40:25;;;;;;;1.00;0.70;;;;;;;21.89;37.66;99634.09;4487065;31;33285;-78
2022/09/02 08:42:55;;;;;;;1.52;0.70;;;;;;;21.86;35.96;99629.84;4483890;31;33558;-79
2022/09/02 08:45:27;;;;;;;0.60;0.50;;;;;;;21.69;36.87;99630.03;4482481;31;32756;-78
2022/09/02 08:48:06;;;;;;;1.80;0.68;;;;;;;22.21;36.27;99624.25;4483153;31;33788;-80
2022/09/02 08:50:36;;;;;;;1.10;0.62;;;;;;;22.28;36.87;99630.00;4483298;31;33107;-80
2022/09/02 08:53:10;;;;;;;2.10;1.10;;;;;;;22.37;36.44;99624.97;4493441;31;33016;-79
2022/09/02 08:55:44;;;;;;;2.08;0.60;;;;;;;22.28;36.35;99624.72;4487076;31;33967;-79
2022/09/02 08:58:17;;;;;;;0.98;0.50;;;;;;;22.36;36.43;99631.19;4484208;31;33442;-79
2022/09/02 09:00:51;;;;;;;1.02;0.80;;;;;;;22.39;35.92;99631.94;4487727;31;33729;-81
2022/09/02 09:03:25;;;;;;;2.97;1.33;;;;;;;22.12;36.43;99630.91;4490635;31;33902;-79
2022/09/02 09:06:00;;;;;;;2.42;0.68;;;;;;;22.69;35.58;99630.00;4491212;31;34208;-79
2022/09/02 09:08:34;;;;;;;2.80;0.70;;;;;;;22.19;36.03;99635.81;4482620;31;35566;-78
2022/09/02 09:11:04;;;;;;;2.15;0.62;;;;;;;22.51;35.84;99625.88;4483838;31;33382;-79
2022/09/02 09:14:10;;;;;;;3.28;0.77;;;;;;;22.21;36.90;99626.87;4488301;31;34428;-79
2022/09/02 09:16:40;;;;;;;0.82;0.65;;;;;;;22.30;36.02;99622.78;4488064;31;33662;-78
2022/09/02 09:19:13;;;;;;;1.55;1.23;;;;;;;22.39;36.05;99622.22;4492925;31;32510;-78
2022/09/02 09:21:43;;;;;;;0.77;0.60;;;;;;;22.30;35.22;99626.31;4483447;31;33717;-78
2022/09/02 09:24:23;;;;;;;3.45;0.93;;;;;;;22.56;34.84;99618.50;4490422;31;34688;-78
2022/09/02 09:26:53;;;;;;;2.22;0.88;;;;;;;22.22;35.71;99619.78;4489954;31;34650;-78
2022/09/02 09:29:22;;;;;;;1.50;0.87;;;;;;;22.36;35.98;99625.91;4489854;31;35208;-78
2022/09/02 09:31:54;;;;;;;2.67;0.90;;;;;;;22.25;36.43;99614.31;4493973;31;33839;-79
2022/09/02 09:34:25;;;;;;;1.30;0.70;;;;;;;22.66;34.77;99613.47;4490034;31;34218;-80
2022/09/02 09:36:54;;;;;;;1.17;0.70;;;;;;;23.07;34.82;99612.59;4489510;31;33916;-78
2022/09/02 09:39:26;;;;;;;0.83;0.63;;;;;;;22.97;35.73;99617.63;4486519;31;35386;-81
2022/09/02 09:41:56;;;;;;;3.72;1.25;;;;;;;23.05;34.95;99617.12;4480554;31;32443;-81
2022/09/02 09:44:34;;;;;;;;;;;;;;;23.18;34.34;99610.94;4496827;31;33372;-79
2022/09/02 09:47:04;;;;;;;0.70;0.52;;;;;;;23.29;34.96;99607.56;4477305;31;32408;-79
2022/09/02 09:49:35;;;;;;;0.93;0.82;;;;;;;23.17;34.74;99611.91;4489382;31;33552;-79
2022/09/02 09:52:04;;;;;;;1.87;0.90;;;;;;;23.53;32.90;99609.50;4488811;31;33026;-79
2022/09/02 09:54:33;;;;;;;1.52;0.80;;;;;;;23.68;32.18;99603.19;4494328;31;34467;-78
2022/09/02 09:57:17;;;;;;;1.92;0.90;;;;;;;23.66;33.07;99594.50;4490737;31;34415;-79
2022/09/02 09:59:54;;;;;;;1.70;0.90;;;;;;;23.84;33.70;99603.81;4490428;31;34393;-78
2022/09/02 10:02:24;;;;;;;1.60;0.90;;;;;;;23.85;34.33;99592.28;4487740;31;33798;-78
2022/09/02 10:05:11;;;;;;;2.15;0.80;;;;;;;23.92;34.56;99597.13;4486215;31;33584;-79
2022/09/02 10:07:41;;;;;;;0.90;0.70;;;;;;;23.79;34.26;99586.56;4491406;31;33542;-79
2022/09/02 10:10:18;;;;;;;4.20;1.08;;;;;;;23.65;34.75;99598.06;4494223;31;34438;-78
2022/09/02 10:12:48;;;;;;;4.55;1.10;;;;;;;24.19;33.88;99597.84;4488580;31;33936;-78
2022/09/02 10:15:23;;;;;;;2.87;1.27;;;;;;;24.25;34.29;99602.72;4489116;31;33908;-81
2022/09/02 10:17:58;;;;;;;2.05;0.80;;;;;;;24.39;33.56;99599.06;4487080;31;33615;-81
2022/09/02 10:20:41;;;;;;;2.83;1.15;;;;;;;24.45;34.06;99596.00;4494312;31;34575;-79
2022/09/02 10:23:44;;;;;;;1.12;0.60;;;;;;;24.80;33.00;99599.72;4489278;31;32890;-78
2022/09/02 10:26:24;;;;;;;1.37;0.65;;;;;;;24.65;33.60;99599.03;4484794;31;33911;-80
2022/09/02 10:29:30;;;;;;;2.67;0.80;;;;;;;24.32;34.42;99599.63;4478763;31;35931;-80
2022/09/02 10:32:23;;;;;;;1.35;1.12;;;;;;;24.67;33.98;99605.91;4478016;31;32516;-79
2022/09/02 10:35:03;;;;;;;1.35;0.90;;;;;;;24.51;33.40;99602.69;4481385;31;34083;-79
2022/09/02 10:37:40;;;;;;;0.80;0.55;;;;;;;24.59;33.13;99607.44;4479369;31;33563;-80
2022/09/02 10:40:13;;;;;;;1.92;0.75;;;;;;;24.90;33.51;99600.72;4481995;31;33070;-79
2022/09/02 10:42:48;;;;;;;2.00;1.08;;;;;;;24.76;33.41;99600.88;4485871;31;34260;-79
2022/09/02 10:45:24;;;;;;;3.17;0.73;;;;;;;24.61;34.42;99601.03;4483042;31;33740;-79
2022/09/02 10:48:02;;;;;;;0.62;0.50;;;;;;;24.82;33.04;99605.75;4483649;31;33457;-79
2022/09/02 10:50:38;;;;;;;1.92;0.70;;;;;;;24.88;32.87;99602.63;4486541;31;34106;-80
2022/09/02 10:53:22;;;;;;;4.53;0.75;;;;;;;24.88;32.18;99597.31;4486059;31;33867;-79
2022/09/02 10:55:57;;;;;;;0.93;0.50;;;;;;;24.35;34.02;99602.06;4495106;31;34013;-79
2022/09/02 10:58:38;;;;;;;0.55;0.55;;;;;;;24.74;33.06;99595.69;4492898;31;33341;-81
2022/09/02 11:01:08;;;;;;;1.62;0.80;;;;;;;25.21;32.57;99601.12;4481709;31;34513;-80
2022/09/02 11:03:41;;;;;;;1.20;0.90;;;;;;;25.01;32.33;99598.13;4478882;31;33954;-82
2022/09/02 11:06:14;;;;;;;2.58;1.05;;;;;;;24.64;33.36;99606.13;4478717;31;31380;-78
2022/09/02 11:08:47;;;;;;;0.68;0.68;;;;;;;24.88;33.44;99606.13;4485755;31;33819;-79
2022/09/02 11:11:20;;;;;;;0.77;0.55;;;;;;;25.47;31.97;99601.78;4487187;31;34165;-79
2022/09/02 11:13:57;;;;;;;0.52;0.52;;;;;;;25.42;32.28;99599.50;4478341;31;34088;-79
2022/09/02 11:16:29;;;;;;;1.05;0.70;;;;;;;25.30;31.12;99597.78;4482733;31;34052;-79
2022/09/02 11:19:03;;;;;;;1.02;0.68;;;;;;;25.37;31.71;99598.13;4475995;32;33430;-79
2022/09/02 11:21:40;;;;;;;1.00;0.52;;;;;;;25.23;32.72;99596.53;4481146;32;32817;-79
2022/09/02 11:24:14;;;;;;;1.15;0.50;;;;;;;25.52;32.63;99600.47;4481958;32;34784;-81
2022/09/02 11:26:49;;;;;;;2.92;0.77;;;;;;;25.66;30.31;99595.88;4475749;32;33037;-79
2022/09/02 11:29:21;;;;;;;1.48;0.68;;;;;;;25.15;31.86;99583.78;4480893;31;33357;-79
2022/09/02 11:31:57;;;;;;;1.37;0.60;;;;;;;25.28;32.10;99587.25;4478183;31;33801;-79
2022/09/02 11:34:36;;;;;;;1.42;0.70;;;;;;;25.12;32.21;99582.22;4480855;31;33858;-81
2022/09/02 11:37:09;;;;;;;2.72;0.62;;;;;;;25.28;31.52;99576.63;4493748;31;33371;-79
2022/09/02 11:39:44;;;;;;;0.95;0.60;;;;;;;25.26;32.27;99580.38;4488154;31;32687;-79
2022/09/02 11:42:43;;;;;;;0.70;0.50;;;;;;;25.36;31.36;99577.88;4482740;31;33520;-80
2022/09/02 11:45:21;;;;;;;0.70;0.60;;;;;;;25.82;29.73;99576.94;4486679;31;33054;-81
2022/09/02 11:48:22;;;;;;;1.40;0.80;;;;;;;25.85;28.47;99576.69;4487154;31;82708;-79
2022/09/02 11:51:10;;;;;;;2.45;0.80;;;;;;;25.51;30.99;99577.50;4487991;31;34052;-79
2022/09/02 11:53:41;;;;;;;1.70;0.80;;;;;;;25.43;31.71;99574.63;4495282;31;32755;-81
2022/09/02 11:56:14;;;;;;;1.75;0.75;;;;;;;25.38;32.67;99563.50;4489952;31;34380;-80
2022/09/02 11:58:45;;;;;;;1.75;0.80;;;;;;;25.43;31.97;99563.16;4489624;31;33991;-79